This is the latest recevied weather packets stored in our database for station/object OM8AGG-15. If no packets are shown the sender has not sent any weather packets the latest 10 day(s).
| Time | Temp. | Humidity | Pressure | Rain* | Wind** | Luminosity | Snow |
|---|---|---|---|---|---|---|---|
| 1777609444 | 1.67° C | 54% | 1026.4 hPa | - | - | - | - |
| 1777608545 | 1.67° C | 56% | 1026.3 hPa | - | - | - | - |
| 1777607647 | 1.11° C | 59% | 1026.4 hPa | - | - | - | - |
| 1777606745 | 1.11° C | 60% | 1026.4 hPa | - | - | - | - |
| 1777605844 | 1.67° C | 59% | 1026.3 hPa | - | - | - | - |
| 1777604944 | 1.11° C | 61% | 1026.4 hPa | - | - | - | - |
| 1777604044 | 1.67° C | 54% | 1026.4 hPa | - | - | - | - |
| 1777603141 | 1.11° C | 60% | 1026.5 hPa | - | - | - | - |
| 1777602240 | 1.11° C | 59% | 1026.5 hPa | - | - | - | - |
| 1777601340 | 1.67° C | 56% | 1026.4 hPa | - | - | - | - |
| 1777600443 | 1.67° C | 58% | 1026.3 hPa | - | - | - | - |
| 1777599540 | 1.67° C | 59% | 1026.3 hPa | - | - | - | - |
| 1777598641 | 1.67° C | 60% | 1026.3 hPa | - | - | - | - |
| 1777597738 | 1.67° C | 58% | 1026.3 hPa | - | - | - | - |
| 1777596838 | 1.67° C | 58% | 1026.2 hPa | - | - | - | - |
| 1777595940 | 2.22° C | 57% | 1026.3 hPa | - | - | - | - |
| 1777595041 | 1.67° C | 57% | 1026.1 hPa | - | - | - | - |
| 1777594141 | 1.67° C | 57% | 1026.2 hPa | - | - | - | - |
| 1777593239 | 2.78° C | 55% | 1026.2 hPa | - | - | - | - |
| 1777592338 | 2.22° C | 60% | 1026.4 hPa | - | - | - | - |
| 1777591437 | 2.78° C | 58% | 1026.3 hPa | - | - | - | - |
| 1777590541 | 2.22° C | 58% | 1026.3 hPa | - | - | - | - |
| 1777589637 | 2.78° C | 55% | 1026.3 hPa | - | - | - | - |
| 1777588738 | 3.33° C | 52% | 1026.2 hPa | - | - | - | - |
| 1777587837 | 3.33° C | 52% | 1026.2 hPa | - | - | - | - |
* Rain since midnight (hover to see other rain measurements)
** Current wind speed in m/s (hover to see current wind gust speed)